createdAt,value
2022-10-20T00:01:28.845Z,99250.94
2022-10-20T00:03:56.441Z,99242.44
2022-10-20T00:06:26.855Z,99246.63
2022-10-20T00:08:55.382Z,99237.16
2022-10-20T00:11:23.549Z,99227.31
2022-10-20T00:13:53.153Z,99219.00
2022-10-20T00:16:21.175Z,99224.00
2022-10-20T00:18:48.008Z,99218.38
2022-10-20T00:21:17.332Z,99216.94
2022-10-20T00:23:44.224Z,99223.03
2022-10-20T00:26:13.998Z,99212.75
2022-10-20T00:28:40.762Z,99205.31
2022-10-20T00:31:07.618Z,99205.69
2022-10-20T00:33:34.789Z,99208.28
2022-10-20T00:36:02.859Z,99203.88
2022-10-20T00:38:29.977Z,99196.72
2022-10-20T00:40:57.399Z,99197.97
2022-10-20T00:43:40.448Z,99202.97
2022-10-20T00:46:10.471Z,99200.22
2022-10-20T00:48:37.370Z,99209.00
2022-10-20T00:51:04.404Z,99205.56
2022-10-20T00:53:31.287Z,99206.72
2022-10-20T00:55:59.565Z,99203.69
2022-10-20T00:58:27.842Z,99206.28
2022-10-20T01:00:57.875Z,99195.56
2022-10-20T01:03:47.350Z,99195.84
2022-10-20T01:08:44.466Z,99191.88
2022-10-20T01:11:16.046Z,99193.16
2022-10-20T01:13:58.391Z,99184.59
2022-10-20T01:16:40.996Z,99194.47
2022-10-20T01:19:33.816Z,99180.72
2022-10-20T01:22:06.453Z,99182.25
2022-10-20T01:25:01.005Z,99181.97
2022-10-20T01:27:34.785Z,99172.13
2022-10-20T01:30:14.123Z,99179.88
2022-10-20T01:33:17.496Z,99175.25
2022-10-20T01:36:00.237Z,99174.25
2022-10-20T01:38:36.601Z,99177.28
2022-10-20T01:41:14.341Z,99177.50
2022-10-20T01:43:43.815Z,99170.59
2022-10-20T01:46:12.423Z,99174.09
2022-10-20T01:48:40.628Z,99168.72
2022-10-20T01:51:08.617Z,99176.34
2022-10-20T01:53:35.640Z,99168.91
2022-10-20T01:56:04.776Z,99172.66
2022-10-20T01:58:46.045Z,99166.69
2022-10-20T02:01:17.467Z,99160.22
2022-10-20T02:03:56.633Z,99147.09
2022-10-20T02:06:58.693Z,99144.31
2022-10-20T02:10:04.765Z,99141.94
2022-10-20T02:12:38.206Z,99135.56
2022-10-20T02:15:06.983Z,99128.06
2022-10-20T02:17:37.573Z,99123.03
2022-10-20T02:20:06.748Z,99120.44
2022-10-20T02:22:34.735Z,99117.94
2022-10-20T02:25:01.784Z,99115.69
2022-10-20T02:27:34.205Z,99121.00
2022-10-20T02:30:05.499Z,99105.81
2022-10-20T02:32:34.270Z,99113.09
2022-10-20T02:35:06.879Z,99108.91
2022-10-20T02:37:34.555Z,99104.25
2022-10-20T02:40:01.923Z,99104.19
2022-10-20T02:42:28.641Z,99106.78
2022-10-20T02:44:55.821Z,99104.91
2022-10-20T02:47:22.807Z,99107.69
2022-10-20T02:49:54.822Z,99100.78
2022-10-20T02:52:21.613Z,99105.16
2022-10-20T02:54:48.420Z,99102.66
2022-10-20T02:57:15.159Z,99107.03
2022-10-20T02:59:41.935Z,99101.22
2022-10-20T03:02:08.602Z,99102.38
2022-10-20T03:04:35.627Z,99107.66
2022-10-20T03:07:02.224Z,99104.72
2022-10-20T03:09:28.943Z,99104.53
2022-10-20T03:11:55.709Z,99112.09
2022-10-20T03:14:22.281Z,99105.69
2022-10-20T03:16:48.913Z,99108.09
2022-10-20T03:19:15.672Z,99104.25
2022-10-20T03:21:42.415Z,99111.81
2022-10-20T03:24:09.021Z,99111.28
2022-10-20T03:26:35.814Z,99104.88
2022-10-20T03:29:02.412Z,99112.53
2022-10-20T03:31:29.043Z,99108.88
2022-10-20T03:33:55.783Z,99106.13
2022-10-20T03:36:22.570Z,99099.31
2022-10-20T03:38:49.083Z,99099.88
2022-10-20T03:41:15.826Z,99100.03
2022-10-20T03:43:42.753Z,99101.03
2022-10-20T03:46:11.770Z,99090.38
2022-10-20T03:48:39.794Z,99092.81
2022-10-20T03:51:07.202Z,99096.56
2022-10-20T03:53:33.997Z,99094.75
2022-10-20T03:56:08.863Z,99099.59
2022-10-20T03:58:35.812Z,99096.84
2022-10-20T04:01:03.549Z,99100.47
2022-10-20T04:03:30.245Z,99095.81
2022-10-20T04:05:57.005Z,99087.78
2022-10-20T04:08:23.783Z,99090.72
2022-10-20T04:10:50.529Z,99082.94
2022-10-20T04:13:17.217Z,99080.63
2022-10-20T04:15:43.969Z,99093.31
2022-10-20T04:18:13.464Z,99088.19
2022-10-20T04:20:43.542Z,99093.19
2022-10-20T04:23:11.668Z,99089.28
2022-10-20T04:25:45.833Z,99076.34
2022-10-20T04:28:13.696Z,99080.44
2022-10-20T04:30:40.570Z,99082.66
2022-10-20T04:33:07.614Z,99082.03
2022-10-20T04:35:34.513Z,99082.19
2022-10-20T04:38:01.420Z,99090.25
2022-10-20T04:40:28.194Z,99088.94
2022-10-20T04:42:55.016Z,99087.78
2022-10-20T04:45:23.956Z,99093.13
2022-10-20T04:47:50.670Z,99085.88
2022-10-20T04:50:17.539Z,99074.25
2022-10-20T04:52:44.323Z,99075.94
2022-10-20T04:55:10.978Z,99072.91
2022-10-20T04:57:37.984Z,99068.63
2022-10-20T05:00:05.497Z,99053.28
2022-10-20T05:02:42.182Z,99049.38
2022-10-20T05:05:11.240Z,99043.34
2022-10-20T05:07:38.341Z,99040.97
2022-10-20T05:10:06.023Z,99029.25
2022-10-20T05:12:32.769Z,99037.38
2022-10-20T05:14:59.900Z,99039.97
2022-10-20T05:17:30.054Z,99042.53
2022-10-20T05:19:57.082Z,99038.69
2022-10-20T05:22:24.130Z,99031.19
2022-10-20T05:24:53.518Z,99034.13
2022-10-20T05:27:20.270Z,99039.38
2022-10-20T05:29:46.921Z,99026.72
2022-10-20T05:32:16.611Z,99031.16
2022-10-20T05:34:46.400Z,99037.44
2022-10-20T05:37:13.075Z,99033.56
2022-10-20T05:39:39.842Z,99031.63
2022-10-20T05:42:06.685Z,99035.75
2022-10-20T05:44:33.498Z,99047.44
2022-10-20T05:47:00.216Z,99044.19
2022-10-20T05:49:40.448Z,99037.44
2022-10-20T05:52:07.434Z,99049.38
2022-10-20T05:54:34.305Z,99039.38
2022-10-20T05:57:00.982Z,99024.31
2022-10-20T05:59:27.812Z,99024.22
2022-10-20T06:01:54.597Z,99033.28
2022-10-20T06:04:28.349Z,99026.88
2022-10-20T06:06:58.434Z,99019.59
2022-10-20T06:09:25.181Z,99017.28
2022-10-20T06:11:57.859Z,99014.78
2022-10-20T06:14:26.065Z,99006.22
2022-10-20T06:16:53.964Z,99013.81
2022-10-20T06:19:21.431Z,99018.09
2022-10-20T06:21:49.479Z,99022.47
2022-10-20T06:24:17.796Z,99022.22
2022-10-20T06:26:45.270Z,99021.41
2022-10-20T06:29:15.556Z,99021.22
2022-10-20T06:31:51.218Z,99021.69
2022-10-20T06:34:24.200Z,99016.03
2022-10-20T06:36:51.501Z,99005.81
2022-10-20T06:39:21.054Z,99020.47
2022-10-20T06:41:53.432Z,99017.78
2022-10-20T06:44:22.097Z,99003.06
2022-10-20T06:46:49.442Z,99000.53
2022-10-20T06:49:16.237Z,98999.94
2022-10-20T06:51:43.324Z,99003.41
2022-10-20T06:54:10.217Z,99014.56
2022-10-20T06:56:38.883Z,99018.34
2022-10-20T06:59:05.823Z,99011.78
2022-10-20T07:01:38.137Z,99014.38
2022-10-20T07:04:13.880Z,99019.84
2022-10-20T07:06:43.327Z,99011.09
2022-10-20T07:09:16.485Z,99008.41
2022-10-20T07:11:44.392Z,99005.47
2022-10-20T07:14:13.714Z,99009.38
2022-10-20T07:16:40.923Z,99010.88
2022-10-20T07:19:07.886Z,99005.78
2022-10-20T07:21:38.375Z,99006.38
2022-10-20T07:24:09.392Z,99006.25
2022-10-20T07:26:41.800Z,99003.38
2022-10-20T07:29:12.137Z,98998.47
2022-10-20T07:31:44.872Z,98989.13
2022-10-20T07:34:25.530Z,98988.50
2022-10-20T07:36:54.532Z,98996.06
2022-10-20T07:39:21.810Z,98999.16
2022-10-20T07:41:48.849Z,99005.63
2022-10-20T07:44:17.149Z,99000.91
2022-10-20T07:46:46.478Z,98994.78
2022-10-20T07:49:42.922Z,98987.53
2022-10-20T07:52:08.631Z,98986.66
2022-10-20T07:54:35.536Z,98994.53
2022-10-20T07:57:03.561Z,98984.59
2022-10-20T07:59:30.484Z,98990.25
2022-10-20T08:02:00.692Z,98987.09
2022-10-20T08:04:28.435Z,98987.94
2022-10-20T08:06:55.375Z,98980.41
2022-10-20T08:09:25.387Z,98973.41
2022-10-20T08:11:55.367Z,98975.03
2022-10-20T08:14:27.323Z,98970.69
2022-10-20T08:16:54.675Z,98966.69
2022-10-20T08:19:36.491Z,98957.91
2022-10-20T08:22:03.809Z,98948.69
2022-10-20T08:24:30.846Z,98942.09
2022-10-20T08:27:01.041Z,98940.28
2022-10-20T08:29:28.099Z,98932.91
2022-10-20T08:31:54.938Z,98932.28
2022-10-20T08:34:24.301Z,98929.06
2022-10-20T08:36:51.128Z,98920.06
2022-10-20T08:39:19.568Z,98929.28
2022-10-20T08:44:40.121Z,98931.84
2022-10-20T08:47:29.160Z,98941.44
2022-10-20T08:49:59.978Z,98942.63
2022-10-20T08:52:27.611Z,98940.34
2022-10-20T08:54:56.633Z,98939.31
2022-10-20T08:57:29.757Z,98937.66
2022-10-20T09:00:05.729Z,98937.16
2022-10-20T09:02:34.905Z,98933.69
2022-10-20T09:05:02.537Z,98927.16
2022-10-20T09:07:34.406Z,98919.63
2022-10-20T09:10:18.387Z,98924.78
2022-10-20T09:12:47.801Z,98915.66
2022-10-20T09:15:17.603Z,98909.56
2022-10-20T09:17:49.455Z,98901.25
2022-10-20T09:20:25.700Z,98896.25
2022-10-20T09:22:52.472Z,98900.19
2022-10-20T09:25:23.982Z,98895.25
2022-10-20T09:27:52.026Z,98887.03
2022-10-20T09:30:26.038Z,98894.34
2022-10-20T09:32:53.339Z,98885.25
2022-10-20T09:35:21.982Z,98883.25
2022-10-20T09:37:56.749Z,98877.88
2022-10-20T09:40:26.454Z,98862.44
2022-10-20T09:43:00.098Z,98872.91
2022-10-20T09:45:29.791Z,98887.13
2022-10-20T09:48:08.090Z,98883.19
2022-10-20T09:50:40.648Z,98884.00
2022-10-20T09:53:18.208Z,98864.75
2022-10-20T09:55:52.082Z,98868.06
2022-10-20T09:58:40.123Z,98869.31
2022-10-20T10:01:16.666Z,98861.69
2022-10-20T10:03:48.692Z,98864.09
2022-10-20T10:06:46.418Z,98863.50
2022-10-20T10:09:32.562Z,98857.56
2022-10-20T10:12:00.478Z,98858.91
2022-10-20T10:14:28.354Z,98864.84
2022-10-20T10:16:55.470Z,98864.00
2022-10-20T10:19:27.628Z,98853.75
2022-10-20T10:21:57.799Z,98849.88
2022-10-20T10:24:43.748Z,98848.44
2022-10-20T10:27:32.671Z,98847.56
2022-10-20T10:30:24.019Z,98839.06
2022-10-20T10:32:50.692Z,98850.13
2022-10-20T10:35:36.187Z,98845.19
2022-10-20T10:38:03.121Z,98842.75
2022-10-20T10:40:42.023Z,98828.34
2022-10-20T10:43:33.218Z,98824.34
2022-10-20T10:46:06.066Z,98818.53
2022-10-20T10:49:08.387Z,98811.22
2022-10-20T10:52:09.374Z,98810.94
2022-10-20T10:54:39.098Z,98814.41
2022-10-20T10:57:26.424Z,98795.81
2022-10-20T10:59:53.530Z,98799.50
2022-10-20T11:02:32.259Z,98789.91
2022-10-20T11:05:19.177Z,98785.09
2022-10-20T11:08:22.224Z,98802.31
2022-10-20T11:11:13.349Z,98806.13
2022-10-20T11:13:49.627Z,98816.50
2022-10-20T11:16:30.527Z,98813.88
2022-10-20T11:19:00.020Z,98799.88
2022-10-20T11:21:45.393Z,98809.59
2022-10-20T11:24:23.626Z,98818.47
2022-10-20T11:27:09.934Z,98813.25
2022-10-20T11:29:48.227Z,98812.16
2022-10-20T11:32:14.814Z,98813.88
2022-10-20T11:35:06.660Z,98800.47
2022-10-20T11:37:52.044Z,98782.41
2022-10-20T11:40:37.932Z,98784.72
2022-10-20T11:43:16.751Z,98774.53
2022-10-20T11:46:05.380Z,98771.63
2022-10-20T11:48:31.984Z,98761.81
2022-10-20T11:51:23.554Z,98760.09
2022-10-20T11:54:24.666Z,98753.81
2022-10-20T11:57:14.239Z,98751.97
2022-10-20T12:00:04.523Z,98743.63
2022-10-20T12:03:01.668Z,98747.28
2022-10-20T12:05:43.641Z,98745.03
2022-10-20T12:08:39.206Z,98748.47
2022-10-20T12:11:44.730Z,98743.47
2022-10-20T12:14:14.409Z,98739.53
2022-10-20T12:16:58.386Z,98743.75
2022-10-20T12:19:30.232Z,98743.78
2022-10-20T12:22:27.344Z,98746.53
2022-10-20T12:24:54.030Z,98756.00
2022-10-20T12:27:27.823Z,98754.47
2022-10-20T12:30:28.996Z,98736.97
2022-10-20T12:33:16.698Z,98731.56
2022-10-20T12:36:14.870Z,98720.38
2022-10-20T12:38:44.792Z,98704.97
2022-10-20T12:41:27.991Z,98692.03
2022-10-20T12:44:00.708Z,98709.59
2022-10-20T12:46:31.463Z,98724.78
2022-10-20T12:49:05.525Z,98723.94
2022-10-20T12:52:01.750Z,98721.91
2022-10-20T12:54:36.536Z,98718.19
2022-10-20T12:57:23.559Z,98706.63
2022-10-20T12:59:50.271Z,98706.63
2022-10-20T13:02:16.914Z,98710.88
2022-10-20T13:04:58.859Z,98719.28
2022-10-20T13:08:21.365Z,98731.72
2022-10-20T13:10:49.406Z,98719.84
2022-10-20T13:13:19.058Z,98719.75
2022-10-20T13:15:45.596Z,98720.34
2022-10-20T13:18:12.459Z,98715.50
2022-10-20T13:21:00.548Z,98710.28
2022-10-20T13:23:41.450Z,98706.41
2022-10-20T13:26:21.486Z,98699.13
2022-10-20T13:28:50.539Z,98688.53
2022-10-20T13:31:58.183Z,98700.97
2022-10-20T13:35:03.313Z,98700.00
2022-10-20T13:37:47.932Z,98694.22
2022-10-20T13:40:24.417Z,98696.81
2022-10-20T13:43:14.153Z,98704.19
2022-10-20T13:45:50.489Z,98699.09
2022-10-20T13:48:51.582Z,98698.03
2022-10-20T13:51:28.196Z,98677.69
2022-10-20T13:53:59.171Z,98669.06
2022-10-20T13:56:37.768Z,98672.28
2022-10-20T13:59:20.629Z,98682.81
2022-10-20T14:01:50.646Z,98685.72
2022-10-20T14:04:37.796Z,98685.91
2022-10-20T14:07:14.091Z,98693.78
2022-10-20T14:09:45.250Z,98677.44
2022-10-20T14:12:28.562Z,98685.28
2022-10-20T14:15:01.959Z,98682.53
2022-10-20T14:17:29.411Z,98685.44
2022-10-20T14:20:17.701Z,98699.63
2022-10-20T14:22:45.356Z,98694.56
2022-10-20T14:25:12.528Z,98693.78
2022-10-20T14:27:39.940Z,98690.16
2022-10-20T14:30:07.917Z,98681.69
2022-10-20T14:32:39.929Z,98676.94
2022-10-20T14:35:19.021Z,98680.34
2022-10-20T14:37:52.934Z,98677.72
2022-10-20T14:40:23.364Z,98681.13
2022-10-20T14:42:51.782Z,98698.41
2022-10-20T14:45:25.619Z,98697.34
2022-10-20T14:48:01.582Z,98697.50
2022-10-20T14:50:31.298Z,98695.88
2022-10-20T14:52:57.987Z,98685.31
2022-10-20T14:55:32.777Z,98692.38
2022-10-20T14:58:01.478Z,98683.53
2022-10-20T15:00:36.872Z,98683.50
2022-10-20T15:03:07.188Z,98694.41
2022-10-20T15:05:36.750Z,98691.47
2022-10-20T15:08:17.437Z,98699.56
2022-10-20T15:10:44.773Z,98710.56
2022-10-20T15:13:40.734Z,98723.94
2022-10-20T15:16:27.642Z,98711.78
2022-10-20T15:19:30.225Z,98706.22
2022-10-20T15:22:10.638Z,98708.81
2022-10-20T15:24:38.800Z,98701.91
2022-10-20T15:27:15.800Z,98699.44
2022-10-20T15:29:54.238Z,98680.56
2022-10-20T15:32:20.914Z,98657.03
2022-10-20T15:34:47.715Z,98642.78
2022-10-20T15:37:22.179Z,98653.09
2022-10-20T15:43:26.222Z,98599.34
2022-10-20T15:45:57.178Z,98593.66
2022-10-20T15:48:26.976Z,98620.47
2022-10-20T15:51:09.725Z,98630.38
2022-10-20T15:53:36.662Z,98612.88
2022-10-20T15:56:07.007Z,98613.25
2022-10-20T15:58:39.986Z,98602.03
2022-10-20T16:01:39.247Z,98608.41
2022-10-20T16:04:17.533Z,98614.53
2022-10-20T16:06:44.548Z,98620.47
2022-10-20T16:09:16.086Z,98627.63
2022-10-20T16:12:16.275Z,98614.81
2022-10-20T16:19:44.401Z,98603.06
2022-10-20T16:22:54.024Z,98575.81
2022-10-20T16:25:21.859Z,98572.25
2022-10-20T16:27:54.089Z,98575.69
2022-10-20T16:30:23.074Z,98587.66
2022-10-20T16:32:53.568Z,98591.72
2022-10-20T16:35:55.719Z,98589.88
2022-10-20T16:38:36.020Z,98581.94
2022-10-20T16:41:08.148Z,98574.44
2022-10-20T16:43:43.695Z,98570.25
2022-10-20T16:46:15.037Z,98564.44
2022-10-20T16:48:42.900Z,98569.59
2022-10-20T16:51:15.241Z,98578.47
2022-10-20T16:53:49.445Z,98583.47
2022-10-20T16:56:19.872Z,98568.72
2022-10-20T16:58:59.312Z,98567.50
2022-10-20T17:01:26.568Z,98568.50
2022-10-20T17:03:53.529Z,98578.75
2022-10-20T17:06:23.161Z,98590.72
2022-10-20T17:08:50.089Z,98579.34
2022-10-20T17:11:25.109Z,98598.25
2022-10-20T17:13:52.031Z,98595.03
2022-10-20T17:16:23.545Z,98597.22
2022-10-20T17:18:57.408Z,98608.72
2022-10-20T17:21:24.386Z,98612.94
2022-10-20T17:23:51.533Z,98618.97
2022-10-20T17:26:20.834Z,98611.50
2022-10-20T17:28:49.025Z,98620.13
2022-10-20T17:31:17.805Z,98628.56
2022-10-20T17:33:46.140Z,98618.53
2022-10-20T17:36:13.289Z,98626.59
2022-10-20T17:38:43.413Z,98645.38
2022-10-20T17:41:15.422Z,98635.59
2022-10-20T17:43:42.128Z,98635.38
2022-10-20T17:46:12.201Z,98639.03
2022-10-20T17:48:39.711Z,98633.09
2022-10-20T17:51:15.025Z,98636.28
2022-10-20T17:53:45.378Z,98636.84
2022-10-20T17:56:18.098Z,98628.63
2022-10-20T17:58:48.862Z,98635.75
2022-10-20T18:01:24.384Z,98640.19
2022-10-20T18:03:57.227Z,98622.75
2022-10-20T18:06:27.043Z,98626.38
2022-10-20T18:13:44.011Z,98632.00
2022-10-20T18:16:12.371Z,98639.84
2022-10-20T18:18:51.507Z,98634.06
2022-10-20T18:21:19.726Z,98632.34
2022-10-20T18:23:48.231Z,98622.94
2022-10-20T18:26:20.213Z,98613.25
2022-10-20T18:28:48.596Z,98607.66
2022-10-20T18:31:22.516Z,98605.88
2022-10-20T18:33:51.170Z,98598.00
2022-10-20T18:36:19.331Z,98595.28
2022-10-20T18:38:47.141Z,98584.34
2022-10-20T18:41:19.108Z,98590.94
2022-10-20T18:43:46.887Z,98615.97
2022-10-20T18:46:14.738Z,98621.78
2022-10-20T18:48:42.288Z,98633.28
2022-10-20T18:51:10.754Z,98616.28
2022-10-20T18:53:38.616Z,98620.88
2022-10-20T18:56:08.380Z,98612.44
2022-10-20T18:58:38.349Z,98606.44
2022-10-20T19:01:19.047Z,98611.09
2022-10-20T19:03:48.764Z,98611.22
2022-10-20T19:06:27.224Z,98605.75
2022-10-20T19:08:58.783Z,98597.78
2022-10-20T19:11:30.258Z,98591.28
2022-10-20T19:13:58.458Z,98591.06
2022-10-20T19:16:29.974Z,98588.78
2022-10-20T19:19:05.514Z,98594.16
2022-10-20T19:21:33.564Z,98603.13
2022-10-20T19:24:06.667Z,98591.66
2022-10-20T19:26:39.022Z,98604.25
2022-10-20T19:29:09.743Z,98629.06
2022-10-20T19:31:46.028Z,98648.94
2022-10-20T19:34:17.516Z,98664.72
2022-10-20T19:36:47.660Z,98658.16
2022-10-20T19:39:21.303Z,98647.91
2022-10-20T19:41:48.050Z,98633.47
2022-10-20T19:44:23.943Z,98625.50
2022-10-20T19:46:52.044Z,98616.31
2022-10-20T19:49:25.616Z,98605.72
2022-10-20T19:51:53.230Z,98615.19
2022-10-20T19:54:22.562Z,98633.50
2022-10-20T19:56:49.766Z,98628.94
2022-10-20T19:59:16.606Z,98619.06
2022-10-20T20:01:52.908Z,98630.75
2022-10-20T20:04:20.281Z,98641.91
2022-10-20T20:06:50.303Z,98641.69
2022-10-20T20:09:20.519Z,98654.63
2022-10-20T20:11:49.168Z,98646.34
2022-10-20T20:14:19.256Z,98636.66
2022-10-20T20:16:47.318Z,98641.31
2022-10-20T20:19:16.739Z,98641.09
2022-10-20T20:21:44.126Z,98624.06
2022-10-20T20:24:16.252Z,98629.03
2022-10-20T20:26:47.167Z,98640.06
2022-10-20T20:29:14.115Z,98644.47
2022-10-20T20:31:44.919Z,98654.84
2022-10-20T20:34:12.539Z,98656.66
2022-10-20T20:36:39.622Z,98649.50
2022-10-20T20:39:07.390Z,98650.53
2022-10-20T20:41:34.609Z,98654.13
2022-10-20T20:44:05.563Z,98656.66
2022-10-20T20:46:36.268Z,98659.75
2022-10-20T20:49:03.818Z,98664.03
2022-10-20T20:51:34.051Z,98659.75
2022-10-20T20:54:04.304Z,98646.63
2022-10-20T20:56:33.897Z,98643.81
2022-10-20T20:59:00.743Z,98644.91
2022-10-20T21:01:32.467Z,98636.63
2022-10-20T21:04:05.052Z,98632.06
2022-10-20T21:06:49.427Z,98634.59
2022-10-20T21:09:19.830Z,98607.66
2022-10-20T21:11:49.049Z,98594.34
2022-10-20T21:14:15.901Z,98583.69
2022-10-20T21:16:42.637Z,98598.00
2022-10-20T21:19:14.737Z,98610.16
2022-10-20T21:21:44.539Z,98599.13
2022-10-20T21:24:12.793Z,98611.06
2022-10-20T21:26:39.957Z,98614.00
2022-10-20T21:29:06.768Z,98619.53
2022-10-20T21:31:33.455Z,98630.72
2022-10-20T21:34:04.132Z,98629.91
2022-10-20T21:36:34.678Z,98622.72
2022-10-20T21:39:03.493Z,98607.91
2022-10-20T21:41:33.402Z,98624.06
2022-10-20T21:44:01.554Z,98643.91
2022-10-20T21:46:50.711Z,98658.34
2022-10-20T21:49:20.273Z,98652.44
2022-10-20T21:51:52.497Z,98667.06
2022-10-20T21:54:22.979Z,98669.25
2022-10-20T21:56:50.160Z,98660.50
2022-10-20T21:59:28.668Z,98669.97
2022-10-20T22:01:58.484Z,98669.47
2022-10-20T22:04:27.297Z,98668.34
2022-10-20T22:07:02.522Z,98665.75
2022-10-20T22:09:29.483Z,98656.91
2022-10-20T22:12:01.083Z,98644.72
2022-10-20T22:14:30.892Z,98627.50
2022-10-20T22:16:57.695Z,98616.72
2022-10-20T22:19:25.096Z,98613.16
2022-10-20T22:21:54.806Z,98615.34
2022-10-20T22:24:23.581Z,98606.44
2022-10-20T22:26:51.771Z,98604.25
2022-10-20T22:29:22.224Z,98608.03
2022-10-20T22:31:49.374Z,98603.31
2022-10-20T22:34:16.182Z,98602.44
2022-10-20T22:36:44.410Z,98601.28
2022-10-20T22:41:37.920Z,98576.16
2022-10-20T22:44:05.741Z,98571.97
2022-10-20T22:46:32.865Z,98571.97
2022-10-20T22:49:02.113Z,98579.91
2022-10-20T22:51:28.827Z,98578.16
2022-10-20T22:53:55.645Z,98585.53
2022-10-20T22:56:28.570Z,98579.53
2022-10-20T22:58:57.548Z,98593.16
2022-10-20T23:01:24.683Z,98591.69
2022-10-20T23:03:51.959Z,98595.47
2022-10-20T23:06:23.761Z,98602.38
2022-10-20T23:08:53.794Z,98590.91
2022-10-20T23:11:21.410Z,98570.72
2022-10-20T23:13:51.034Z,98575.94
2022-10-20T23:16:17.965Z,98568.66
2022-10-20T23:18:44.782Z,98564.94
2022-10-20T23:21:14.852Z,98568.63
2022-10-20T23:23:42.587Z,98576.34
2022-10-20T23:26:12.353Z,98587.06
2022-10-20T23:28:39.452Z,98582.41
2022-10-20T23:31:15.025Z,98585.69
2022-10-20T23:33:43.603Z,98580.25
2022-10-20T23:36:11.553Z,98583.91
2022-10-20T23:38:38.342Z,98581.03
2022-10-20T23:41:05.128Z,98568.06
2022-10-20T23:43:32.034Z,98571.25
2022-10-20T23:45:59.126Z,98577.72
2022-10-20T23:48:28.281Z,98554.78
2022-10-20T23:50:55.994Z,98546.66
2022-10-20T23:53:25.148Z,98548.03
2022-10-20T23:55:52.024Z,98550.50
2022-10-20T23:58:22.027Z,98544.81
